Fourchu: Past 24 Hour Conditions

 

Argentia

05:30 PM NDT 29 August 2014
This table is a summary of hourly weather conditions for the past 24 hours.
Date / Time
(NDT)
Wind(knots) Conditions Visibility(km) Pressure(kPa) Air tempC) Relative humidity(%) Dew pointC)
29 August 2014
17:30 NNE 21 N/A N/A 100.9 13 68 7
16:30 NNE 20 gust 27 N/A N/A 100.8 13 68 8
15:30 NNE 23 gust 28 N/A N/A 100.6 12 72 7
14:30 NNE 20 gust 26 N/A N/A 100.6 12 81 8
13:30 NNE 23 gust 30 N/A N/A 100.5 11 87 9
12:30 NNE 26 gust 31 N/A N/A 100.4 12 87 10
11:30 NNE 25 gust 34 N/A N/A 100.3 12 87 10
10:30 NE 28 gust 40 N/A N/A 100.2 11 90 10
9:30 NNE 24 gust 31 N/A N/A 100.2 11 92 10
8:30 NE 22 gust 29 N/A N/A 100.1 12 93 11
7:30 NE 24 gust 30 N/A N/A 100.0 13 91 11
6:30 NNE 18 gust 24 N/A N/A 100.0 13 91 11
5:30 NE 21 gust 27 N/A N/A 100.0 13 90 11
4:30 NE 18 gust 24 N/A N/A 100.0 13 91 12
3:30 ENE 17 gust 25 N/A N/A 100.1 13 91 12
2:30 ENE 16 gust 24 N/A N/A 100.1 13 91 12
1:30 ENE 22 gust 29 N/A N/A 100.2 13 90 12
0:30 ENE 21 gust 27 N/A N/A 100.3 13 91 12
28 August 2014
23:30 NE 17 N/A N/A 100.4 13 92 12
22:30 NE 10 gust 18 N/A N/A 100.5 14 92 12
21:30 ENE 13 gust 20 N/A N/A 100.5 13 92 12
20:30 ENE 12 N/A N/A 100.5 13 93 12
19:30 ENE 13 gust 19 N/A N/A 100.5 13 94 12
18:30 ENE 15 gust 22 N/A N/A 100.6 13 93 12
17:30 ENE 13 N/A N/A 100.6 14 93 12
 
Map of Atlantic - Newfoundland marine weather areas Southwestern Grand Banks - 44138 Banquereau - 44139 Tail of the Bank - 44140 Nickerson Bank - 44251 Northeast Burgeo Bank - 44255 Blanc-Sablon Airport Cap Whittle Chevery Natashquan Airport Heath Point Miscou Island Grand Étang Ingonish Beach North Mountain St.Paul Island J.A. Douglas McCurdy Sydney Airport Charlottetown Airport East Point North Cape Argentia Bonavista Burgeo Cape Race Corner Brook Daniel's Harbour Englee Ferolle Point La Scie Port aux Basques Rocky Harbour Sagona Island St. Anthony Airport St. John's Int'l Airport St. Lawrence Stephenville Airport Twillingate Winterland Wreckhouse Cartwright Airport Mary's Harbour Grates Cove Pool's Island Marticot Island Long Pond Îles de la Madeleine Airport
Legend: buoyBuoy land stationLand Station